sensor_id;sensor_type;location;lat;lon;timestamp;temperature;humidity
27559;DHT22;15002;52.028;5.670;2023-03-03T00:00:49;4.50;99.90
27559;DHT22;15002;52.028;5.670;2023-03-03T00:03:21;4.30;99.90
27559;DHT22;15002;52.028;5.670;2023-03-03T00:05:47;4.60;99.90
27559;DHT22;15002;52.028;5.670;2023-03-03T00:08:12;4.70;99.90
27559;DHT22;15002;52.028;5.670;2023-03-03T00:10:38;4.60;99.90
27559;DHT22;15002;52.028;5.670;2023-03-03T00:13:14;4.40;99.90
27559;DHT22;15002;52.028;5.670;2023-03-03T00:15:40;4.20;99.90
27559;DHT22;15002;52.028;5.670;2023-03-03T00:20:53;4.50;99.90
27559;DHT22;15002;52.028;5.670;2023-03-03T00:23:26;4.40;99.90
27559;DHT22;15002;52.028;5.670;2023-03-03T00:25:53;4.70;99.90
27559;DHT22;15002;52.028;5.670;2023-03-03T00:31:15;4.70;99.90
27559;DHT22;15002;52.028;5.670;2023-03-03T00:33:52;4.50;99.90
27559;DHT22;15002;52.028;5.670;2023-03-03T00:39:12;4.40;99.90
27559;DHT22;15002;52.028;5.670;2023-03-03T00:41:41;4.90;99.90
27559;DHT22;15002;52.028;5.670;2023-03-03T00:44:42;4.60;99.90
27559;DHT22;15002;52.028;5.670;2023-03-03T00:49:36;4.50;99.90
27559;DHT22;15002;52.028;5.670;2023-03-03T00:52:18;4.20;99.90
27559;DHT22;15002;52.028;5.670;2023-03-03T00:54:45;4.20;99.90
27559;DHT22;15002;52.028;5.670;2023-03-03T00:57:11;4.00;99.90
27559;DHT22;15002;52.028;5.670;2023-03-03T00:59:38;4.00;99.90
27559;DHT22;15002;52.028;5.670;2023-03-03T01:02:04;4.00;99.90
27559;DHT22;15002;52.028;5.670;2023-03-03T01:04:30;4.00;99.90
27559;DHT22;15002;52.028;5.670;2023-03-03T01:06:56;4.30;99.90
27559;DHT22;15002;52.028;5.670;2023-03-03T01:09:22;4.30;99.90
27559;DHT22;15002;52.028;5.670;2023-03-03T01:11:48;4.20;99.90
27559;DHT22;15002;52.028;5.670;2023-03-03T01:14:14;4.40;99.90
27559;DHT22;15002;52.028;5.670;2023-03-03T01:16:40;4.50;99.90
27559;DHT22;15002;52.028;5.670;2023-03-03T01:19:06;4.30;99.90
27559;DHT22;15002;52.028;5.670;2023-03-03T01:21:32;4.40;99.90
27559;DHT22;15002;52.028;5.670;2023-03-03T01:23:58;4.10;99.90
27559;DHT22;15002;52.028;5.670;2023-03-03T01:26:24;3.80;99.90
27559;DHT22;15002;52.028;5.670;2023-03-03T01:28:49;3.50;99.90
27559;DHT22;15002;52.028;5.670;2023-03-03T01:31:15;3.50;99.90
27559;DHT22;15002;52.028;5.670;2023-03-03T01:33:41;3.60;99.90
27559;DHT22;15002;52.028;5.670;2023-03-03T01:36:07;3.70;99.90
27559;DHT22;15002;52.028;5.670;2023-03-03T01:38:37;3.90;99.90
27559;DHT22;15002;52.028;5.670;2023-03-03T01:41:03;4.20;99.90
27559;DHT22;15002;52.028;5.670;2023-03-03T01:43:30;4.40;99.90
27559;DHT22;15002;52.028;5.670;2023-03-03T01:48:32;4.10;99.90
27559;DHT22;15002;52.028;5.670;2023-03-03T01:51:04;3.90;99.90
27559;DHT22;15002;52.028;5.670;2023-03-03T01:53:44;3.90;99.90
27559;DHT22;15002;52.028;5.670;2023-03-03T01:56:10;3.90;99.90
27559;DHT22;15002;52.028;5.670;2023-03-03T01:58:43;3.70;99.90
27559;DHT22;15002;52.028;5.670;2023-03-03T02:01:20;3.90;99.90
27559;DHT22;15002;52.028;5.670;2023-03-03T02:03:46;4.10;99.90
27559;DHT22;15002;52.028;5.670;2023-03-03T02:06:17;4.10;99.90
27559;DHT22;15002;52.028;5.670;2023-03-03T02:11:36;4.20;99.90
27559;DHT22;15002;52.028;5.670;2023-03-03T02:14:02;4.40;99.90
27559;DHT22;15002;52.028;5.670;2023-03-03T02:16:28;4.60;99.90
27559;DHT22;15002;52.028;5.670;2023-03-03T02:18:53;4.70;99.90
27559;DHT22;15002;52.028;5.670;2023-03-03T02:21:21;4.60;99.90
27559;DHT22;15002;52.028;5.670;2023-03-03T02:26:31;4.40;99.90
27559;DHT22;15002;52.028;5.670;2023-03-03T02:28:58;4.00;99.90
27559;DHT22;15002;52.028;5.670;2023-03-03T02:31:27;4.00;99.90
27559;DHT22;15002;52.028;5.670;2023-03-03T02:33:54;4.10;99.90
27559;DHT22;15002;52.028;5.670;2023-03-03T02:36:40;4.20;99.90
27559;DHT22;15002;52.028;5.670;2023-03-03T02:39:13;4.40;99.90
27559;DHT22;15002;52.028;5.670;2023-03-03T02:41:54;4.20;99.90
27559;DHT22;15002;52.028;5.670;2023-03-03T02:44:24;4.10;99.90
27559;DHT22;15002;52.028;5.670;2023-03-03T02:46:52;4.00;99.90
27559;DHT22;15002;52.028;5.670;2023-03-03T02:49:31;4.10;99.90
27559;DHT22;15002;52.028;5.670;2023-03-03T02:51:58;4.10;99.90
27559;DHT22;15002;52.028;5.670;2023-03-03T02:54:26;4.00;99.90
27559;DHT22;15002;52.028;5.670;2023-03-03T02:56:52;4.20;99.90
27559;DHT22;15002;52.028;5.670;2023-03-03T02:59:17;4.30;99.90
27559;DHT22;15002;52.028;5.670;2023-03-03T03:01:44;4.20;99.90
27559;DHT22;15002;52.028;5.670;2023-03-03T03:04:30;4.20;99.90
27559;DHT22;15002;52.028;5.670;2023-03-03T03:06:56;4.00;99.90
27559;DHT22;15002;52.028;5.670;2023-03-03T03:09:23;4.00;99.90
27559;DHT22;15002;52.028;5.670;2023-03-03T03:11:50;4.20;99.90
27559;DHT22;15002;52.028;5.670;2023-03-03T03:14:16;4.10;99.90
27559;DHT22;15002;52.028;5.670;2023-03-03T03:16:41;4.10;99.90
27559;DHT22;15002;52.028;5.670;2023-03-03T03:19:07;4.10;99.90
27559;DHT22;15002;52.028;5.670;2023-03-03T03:21:33;3.60;99.90
27559;DHT22;15002;52.028;5.670;2023-03-03T03:23:59;3.70;99.90
27559;DHT22;15002;52.028;5.670;2023-03-03T03:26:25;3.60;99.90
27559;DHT22;15002;52.028;5.670;2023-03-03T03:28:52;3.70;99.90
27559;DHT22;15002;52.028;5.670;2023-03-03T03:31:20;3.80;99.90
27559;DHT22;15002;52.028;5.670;2023-03-03T03:33:46;3.80;99.90
27559;DHT22;15002;52.028;5.670;2023-03-03T03:36:12;3.60;99.90
27559;DHT22;15002;52.028;5.670;2023-03-03T03:38:38;3.90;99.90
27559;DHT22;15002;52.028;5.670;2023-03-03T03:41:05;3.80;99.90
27559;DHT22;15002;52.028;5.670;2023-03-03T03:43:31;3.50;99.90
27559;DHT22;15002;52.028;5.670;2023-03-03T03:45:57;3.20;99.90
27559;DHT22;15002;52.028;5.670;2023-03-03T03:48:23;3.30;99.90
27559;DHT22;15002;52.028;5.670;2023-03-03T03:50:49;3.00;99.90
27559;DHT22;15002;52.028;5.670;2023-03-03T03:53:16;3.30;99.90
27559;DHT22;15002;52.028;5.670;2023-03-03T03:55:43;3.60;99.90
27559;DHT22;15002;52.028;5.670;2023-03-03T03:58:12;3.80;99.90
27559;DHT22;15002;52.028;5.670;2023-03-03T04:00:40;4.10;99.90
27559;DHT22;15002;52.028;5.670;2023-03-03T04:03:06;4.10;99.90
27559;DHT22;15002;52.028;5.670;2023-03-03T04:05:32;4.10;99.90
27559;DHT22;15002;52.028;5.670;2023-03-03T04:07:57;4.10;99.90
27559;DHT22;15002;52.028;5.670;2023-03-03T04:10:23;4.50;99.90
27559;DHT22;15002;52.028;5.670;2023-03-03T04:12:49;4.30;99.90
27559;DHT22;15002;52.028;5.670;2023-03-03T04:15:14;4.10;99.90
27559;DHT22;15002;52.028;5.670;2023-03-03T04:17:40;3.80;99.90
27559;DHT22;15002;52.028;5.670;2023-03-03T04:20:07;4.00;99.90
27559;DHT22;15002;52.028;5.670;2023-03-03T04:22:33;4.10;99.90
27559;DHT22;15002;52.028;5.670;2023-03-03T04:25:01;4.20;99.90
27559;DHT22;15002;52.028;5.670;2023-03-03T04:27:30;4.20;99.90
27559;DHT22;15002;52.028;5.670;2023-03-03T04:29:56;3.80;99.90
27559;DHT22;15002;52.028;5.670;2023-03-03T04:32:22;3.80;99.90
27559;DHT22;15002;52.028;5.670;2023-03-03T04:34:47;3.80;99.90
27559;DHT22;15002;52.028;5.670;2023-03-03T04:37:13;3.80;99.90
27559;DHT22;15002;52.028;5.670;2023-03-03T04:39:38;4.00;99.90
27559;DHT22;15002;52.028;5.670;2023-03-03T04:42:04;3.90;99.90
27559;DHT22;15002;52.028;5.670;2023-03-03T04:44:30;4.20;99.90
27559;DHT22;15002;52.028;5.670;2023-03-03T04:46:55;4.10;99.90
27559;DHT22;15002;52.028;5.670;2023-03-03T04:49:21;4.00;99.90
27559;DHT22;15002;52.028;5.670;2023-03-03T04:51:46;3.80;99.90
27559;DHT22;15002;52.028;5.670;2023-03-03T04:54:12;4.00;99.90
27559;DHT22;15002;52.028;5.670;2023-03-03T04:56:38;3.90;99.90
27559;DHT22;15002;52.028;5.670;2023-03-03T04:59:03;4.00;99.90
27559;DHT22;15002;52.028;5.670;2023-03-03T05:01:29;4.00;99.90
27559;DHT22;15002;52.028;5.670;2023-03-03T05:03:54;4.00;99.90
27559;DHT22;15002;52.028;5.670;2023-03-03T05:06:20;4.00;99.90
27559;DHT22;15002;52.028;5.670;2023-03-03T05:08:46;4.40;99.90
27559;DHT22;15002;52.028;5.670;2023-03-03T05:11:11;4.20;99.90
27559;DHT22;15002;52.028;5.670;2023-03-03T05:13:38;4.50;99.90
27559;DHT22;15002;52.028;5.670;2023-03-03T05:16:04;4.30;99.90
27559;DHT22;15002;52.028;5.670;2023-03-03T05:18:30;4.20;99.90
27559;DHT22;15002;52.028;5.670;2023-03-03T05:20:55;4.20;99.90
27559;DHT22;15002;52.028;5.670;2023-03-03T05:23:22;4.10;99.90
27559;DHT22;15002;52.028;5.670;2023-03-03T05:25:48;3.90;99.90
27559;DHT22;15002;52.028;5.670;2023-03-03T05:28:14;3.60;99.90
27559;DHT22;15002;52.028;5.670;2023-03-03T05:30:40;3.70;99.90
27559;DHT22;15002;52.028;5.670;2023-03-03T05:33:06;3.70;99.90
27559;DHT22;15002;52.028;5.670;2023-03-03T05:35:32;3.60;99.90
27559;DHT22;15002;52.028;5.670;2023-03-03T05:37:58;3.80;99.90
27559;DHT22;15002;52.028;5.670;2023-03-03T05:40:27;3.60;99.90
27559;DHT22;15002;52.028;5.670;2023-03-03T05:42:53;3.40;99.90
27559;DHT22;15002;52.028;5.670;2023-03-03T05:45:19;3.40;99.90
27559;DHT22;15002;52.028;5.670;2023-03-03T05:47:50;3.40;99.90
27559;DHT22;15002;52.028;5.670;2023-03-03T05:50:16;3.70;99.90
27559;DHT22;15002;52.028;5.670;2023-03-03T05:52:42;3.50;99.90
27559;DHT22;15002;52.028;5.670;2023-03-03T05:55:08;3.60;99.90
27559;DHT22;15002;52.028;5.670;2023-03-03T05:57:34;3.50;99.90
27559;DHT22;15002;52.028;5.670;2023-03-03T06:00:02;3.60;99.90
27559;DHT22;15002;52.028;5.670;2023-03-03T06:02:28;3.80;99.90
27559;DHT22;15002;52.028;5.670;2023-03-03T06:04:53;3.90;99.90
27559;DHT22;15002;52.028;5.670;2023-03-03T06:07:19;4.10;99.90
27559;DHT22;15002;52.028;5.670;2023-03-03T06:09:44;3.80;99.90
27559;DHT22;15002;52.028;5.670;2023-03-03T06:12:10;3.70;99.90
27559;DHT22;15002;52.028;5.670;2023-03-03T06:14:36;3.60;99.90
27559;DHT22;15002;52.028;5.670;2023-03-03T06:17:01;3.80;99.90
27559;DHT22;15002;52.028;5.670;2023-03-03T06:19:27;3.90;99.90
27559;DHT22;15002;52.028;5.670;2023-03-03T06:21:53;4.10;99.90
27559;DHT22;15002;52.028;5.670;2023-03-03T06:24:19;4.10;99.90
27559;DHT22;15002;52.028;5.670;2023-03-03T06:26:44;4.30;99.90
27559;DHT22;15002;52.028;5.670;2023-03-03T06:29:10;4.20;99.90
27559;DHT22;15002;52.028;5.670;2023-03-03T06:31:36;4.00;99.90
27559;DHT22;15002;52.028;5.670;2023-03-03T06:34:01;4.10;99.90
27559;DHT22;15002;52.028;5.670;2023-03-03T06:36:27;4.20;99.90
27559;DHT22;15002;52.028;5.670;2023-03-03T06:38:53;4.00;99.90
27559;DHT22;15002;52.028;5.670;2023-03-03T06:41:18;4.00;99.90
27559;DHT22;15002;52.028;5.670;2023-03-03T06:43:44;4.10;99.90
27559;DHT22;15002;52.028;5.670;2023-03-03T06:46:11;4.10;99.90
27559;DHT22;15002;52.028;5.670;2023-03-03T06:48:37;3.90;99.90
27559;DHT22;15002;52.028;5.670;2023-03-03T06:51:32;3.90;99.90
27559;DHT22;15002;52.028;5.670;2023-03-03T06:54:01;3.90;99.90
27559;DHT22;15002;52.028;5.670;2023-03-03T06:56:27;3.70;99.90
27559;DHT22;15002;52.028;5.670;2023-03-03T06:58:59;4.30;99.90
27559;DHT22;15002;52.028;5.670;2023-03-03T07:01:33;4.20;99.90
27559;DHT22;15002;52.028;5.670;2023-03-03T07:03:59;4.30;99.90
27559;DHT22;15002;52.028;5.670;2023-03-03T07:06:25;4.40;99.90
27559;DHT22;15002;52.028;5.670;2023-03-03T07:08:53;4.10;99.90
27559;DHT22;15002;52.028;5.670;2023-03-03T07:11:22;4.20;99.90
27559;DHT22;15002;52.028;5.670;2023-03-03T07:13:54;4.50;99.90
27559;DHT22;15002;52.028;5.670;2023-03-03T07:16:26;4.40;99.90
27559;DHT22;15002;52.028;5.670;2023-03-03T07:18:53;4.60;99.90
27559;DHT22;15002;52.028;5.670;2023-03-03T07:21:20;4.40;99.90
27559;DHT22;15002;52.028;5.670;2023-03-03T07:23:51;4.50;99.90
27559;DHT22;15002;52.028;5.670;2023-03-03T07:26:30;4.50;99.90
27559;DHT22;15002;52.028;5.670;2023-03-03T07:29:09;4.60;99.90
27559;DHT22;15002;52.028;5.670;2023-03-03T07:31:39;4.60;99.90
27559;DHT22;15002;52.028;5.670;2023-03-03T07:34:30;4.70;99.90
27559;DHT22;15002;52.028;5.670;2023-03-03T07:37:02;4.60;99.90
27559;DHT22;15002;52.028;5.670;2023-03-03T07:39:34;4.70;99.90
27559;DHT22;15002;52.028;5.670;2023-03-03T07:44:50;4.60;99.90
27559;DHT22;15002;52.028;5.670;2023-03-03T07:47:25;4.60;99.90
27559;DHT22;15002;52.028;5.670;2023-03-03T07:49:54;4.60;99.90
27559;DHT22;15002;52.028;5.670;2023-03-03T07:52:28;4.60;99.90
27559;DHT22;15002;52.028;5.670;2023-03-03T07:54:57;4.80;99.90
27559;DHT22;15002;52.028;5.670;2023-03-03T08:00:42;5.00;99.90
27559;DHT22;15002;52.028;5.670;2023-03-03T08:03:01;5.10;99.90
27559;DHT22;15002;52.028;5.670;2023-03-03T08:05:29;5.40;99.90
27559;DHT22;15002;52.028;5.670;2023-03-03T08:10:53;5.20;99.90
27559;DHT22;15002;52.028;5.670;2023-03-03T08:13:44;5.30;99.90
27559;DHT22;15002;52.028;5.670;2023-03-03T08:18:39;5.30;99.90
27559;DHT22;15002;52.028;5.670;2023-03-03T08:21:20;5.60;99.90
27559;DHT22;15002;52.028;5.670;2023-03-03T08:23:46;5.50;99.90
27559;DHT22;15002;52.028;5.670;2023-03-03T08:26:17;5.10;99.90
27559;DHT22;15002;52.028;5.670;2023-03-03T08:28:43;5.00;99.90
27559;DHT22;15002;52.028;5.670;2023-03-03T08:31:09;5.20;99.90
27559;DHT22;15002;52.028;5.670;2023-03-03T08:33:35;5.40;99.90
27559;DHT22;15002;52.028;5.670;2023-03-03T08:36:01;5.60;99.90
27559;DHT22;15002;52.028;5.670;2023-03-03T08:38:27;5.90;99.90
27559;DHT22;15002;52.028;5.670;2023-03-03T08:40:53;5.60;99.90
27559;DHT22;15002;52.028;5.670;2023-03-03T08:43:18;5.40;99.90
27559;DHT22;15002;52.028;5.670;2023-03-03T08:45:48;5.30;99.90
27559;DHT22;15002;52.028;5.670;2023-03-03T08:48:14;5.20;99.90
27559;DHT22;15002;52.028;5.670;2023-03-03T08:50:41;5.20;99.90
27559;DHT22;15002;52.028;5.670;2023-03-03T08:53:06;4.90;99.90
27559;DHT22;15002;52.028;5.670;2023-03-03T08:55:32;5.10;99.90
27559;DHT22;15002;52.028;5.670;2023-03-03T08:57:58;5.40;99.90
27559;DHT22;15002;52.028;5.670;2023-03-03T09:00:24;5.60;99.90
27559;DHT22;15002;52.028;5.670;2023-03-03T09:02:51;5.40;99.90
27559;DHT22;15002;52.028;5.670;2023-03-03T09:05:18;5.60;99.90
27559;DHT22;15002;52.028;5.670;2023-03-03T09:07:44;5.60;99.90
27559;DHT22;15002;52.028;5.670;2023-03-03T09:10:14;5.70;99.90
27559;DHT22;15002;52.028;5.670;2023-03-03T09:12:43;5.30;99.90
27559;DHT22;15002;52.028;5.670;2023-03-03T09:15:27;5.20;99.90
27559;DHT22;15002;52.028;5.670;2023-03-03T09:17:56;5.30;99.90
27559;DHT22;15002;52.028;5.670;2023-03-03T09:20:37;5.20;99.90
27559;DHT22;15002;52.028;5.670;2023-03-03T09:23:39;5.40;99.90
27559;DHT22;15002;52.028;5.670;2023-03-03T09:26:22;5.30;99.90
27559;DHT22;15002;52.028;5.670;2023-03-03T09:28:52;5.50;99.90
27559;DHT22;15002;52.028;5.670;2023-03-03T09:31:25;5.90;99.90
27559;DHT22;15002;52.028;5.670;2023-03-03T09:33:52;5.80;99.90
27559;DHT22;15002;52.028;5.670;2023-03-03T09:36:29;5.70;99.90
27559;DHT22;15002;52.028;5.670;2023-03-03T09:38:56;6.00;99.90
27559;DHT22;15002;52.028;5.670;2023-03-03T09:41:44;6.30;99.90
27559;DHT22;15002;52.028;5.670;2023-03-03T09:47:34;6.50;99.90
27559;DHT22;15002;52.028;5.670;2023-03-03T09:53:01;6.70;99.90
27559;DHT22;15002;52.028;5.670;2023-03-03T09:55:43;6.50;99.90
27559;DHT22;15002;52.028;5.670;2023-03-03T09:58:22;6.50;99.90
27559;DHT22;15002;52.028;5.670;2023-03-03T10:03:54;7.00;99.90
27559;DHT22;15002;52.028;5.670;2023-03-03T10:06:37;7.30;99.90
27559;DHT22;15002;52.028;5.670;2023-03-03T10:12:04;7.70;99.90
27559;DHT22;15002;52.028;5.670;2023-03-03T10:28:40;6.90;99.90
27559;DHT22;15002;52.028;5.670;2023-03-03T10:37:16;7.40;99.90
27559;DHT22;15002;52.028;5.670;2023-03-03T10:40:02;7.60;99.90
27559;DHT22;15002;52.028;5.670;2023-03-03T10:53:13;9.10;99.90
27559;DHT22;15002;52.028;5.670;2023-03-03T11:11:52;9.00;99.90
27559;DHT22;15002;52.028;5.670;2023-03-03T11:33:35;8.70;99.90
27559;DHT22;15002;52.028;5.670;2023-03-03T11:36:26;8.70;99.90
27559;DHT22;15002;52.028;5.670;2023-03-03T11:39:02;8.70;99.90
27559;DHT22;15002;52.028;5.670;2023-03-03T11:44:34;8.90;99.90
27559;DHT22;15002;52.028;5.670;2023-03-03T11:50:13;8.80;99.90
27559;DHT22;15002;52.028;5.670;2023-03-03T11:57:39;8.60;99.90
27559;DHT22;15002;52.028;5.670;2023-03-03T12:00:47;8.90;99.90
27559;DHT22;15002;52.028;5.670;2023-03-03T12:14:39;9.50;99.90
27559;DHT22;15002;52.028;5.670;2023-03-03T12:17:15;9.90;99.90
27559;DHT22;15002;52.028;5.670;2023-03-03T12:19:59;10.10;99.90
27559;DHT22;15002;52.028;5.670;2023-03-03T12:22:49;10.30;99.90
27559;DHT22;15002;52.028;5.670;2023-03-03T12:25:50;10.40;99.90
27559;DHT22;15002;52.028;5.670;2023-03-03T12:28:44;10.70;99.90
27559;DHT22;15002;52.028;5.670;2023-03-03T12:33:58;10.80;99.90
27559;DHT22;15002;52.028;5.670;2023-03-03T12:39:35;10.80;99.40
27559;DHT22;15002;52.028;5.670;2023-03-03T12:42:15;10.70;99.00
27559;DHT22;15002;52.028;5.670;2023-03-03T12:59:03;10.40;98.90
27559;DHT22;15002;52.028;5.670;2023-03-03T13:15:27;11.40;98.70
27559;DHT22;15002;52.028;5.670;2023-03-03T13:18:29;11.50;97.60
27559;DHT22;15002;52.028;5.670;2023-03-03T13:21:15;11.30;97.90
27559;DHT22;15002;52.028;5.670;2023-03-03T13:26:19;11.10;97.20
27559;DHT22;15002;52.028;5.670;2023-03-03T13:31:36;11.10;97.20
27559;DHT22;15002;52.028;5.670;2023-03-03T13:34:03;11.00;97.00
27559;DHT22;15002;52.028;5.670;2023-03-03T13:36:41;11.10;97.50
27559;DHT22;15002;52.028;5.670;2023-03-03T13:39:18;11.00;97.50
27559;DHT22;15002;52.028;5.670;2023-03-03T13:42:01;11.10;97.20
27559;DHT22;15002;52.028;5.670;2023-03-03T13:44:35;11.00;97.50
27559;DHT22;15002;52.028;5.670;2023-03-03T13:47:27;10.70;98.10
27559;DHT22;15002;52.028;5.670;2023-03-03T13:52:30;10.60;97.40
27559;DHT22;15002;52.028;5.670;2023-03-03T14:00:39;10.40;97.60
27559;DHT22;15002;52.028;5.670;2023-03-03T14:05:58;10.80;97.60
27559;DHT22;15002;52.028;5.670;2023-03-03T14:11:10;11.20;97.50
27559;DHT22;15002;52.028;5.670;2023-03-03T14:19:04;11.30;97.60
27559;DHT22;15002;52.028;5.670;2023-03-03T14:22:02;11.10;97.70
27559;DHT22;15002;52.028;5.670;2023-03-03T14:24:28;11.10;97.50
27559;DHT22;15002;52.028;5.670;2023-03-03T14:26:56;11.10;98.00
27559;DHT22;15002;52.028;5.670;2023-03-03T14:29:30;11.20;98.00
27559;DHT22;15002;52.028;5.670;2023-03-03T14:32:01;11.10;98.10
27559;DHT22;15002;52.028;5.670;2023-03-03T14:34:38;11.10;98.00
27559;DHT22;15002;52.028;5.670;2023-03-03T14:37:28;10.90;98.20
27559;DHT22;15002;52.028;5.670;2023-03-03T14:42:48;11.00;98.40
27559;DHT22;15002;52.028;5.670;2023-03-03T14:47:46;10.90;98.60
27559;DHT22;15002;52.028;5.670;2023-03-03T14:55:39;10.80;99.00
27559;DHT22;15002;52.028;5.670;2023-03-03T14:58:28;10.80;99.10
27559;DHT22;15002;52.028;5.670;2023-03-03T15:04:03;10.80;99.00
27559;DHT22;15002;52.028;5.670;2023-03-03T15:06:34;10.80;99.30
27559;DHT22;15002;52.028;5.670;2023-03-03T15:11:55;11.00;98.70
27559;DHT22;15002;52.028;5.670;2023-03-03T15:14:35;10.90;98.80
27559;DHT22;15002;52.028;5.670;2023-03-03T15:20:02;10.70;98.30
27559;DHT22;15002;52.028;5.670;2023-03-03T15:23:03;10.80;98.20
27559;DHT22;15002;52.028;5.670;2023-03-03T15:28:30;11.00;98.10
27559;DHT22;15002;52.028;5.670;2023-03-03T15:31:26;10.90;97.90
27559;DHT22;15002;52.028;5.670;2023-03-03T15:36:46;10.80;97.90
27559;DHT22;15002;52.028;5.670;2023-03-03T15:42:03;10.50;98.40
27559;DHT22;15002;52.028;5.670;2023-03-03T15:47:48;10.80;97.70
27559;DHT22;15002;52.028;5.670;2023-03-03T15:50:22;10.50;98.00
27559;DHT22;15002;52.028;5.670;2023-03-03T15:55:53;10.60;97.80
27559;DHT22;15002;52.028;5.670;2023-03-03T16:03:26;10.40;98.30
27559;DHT22;15002;52.028;5.670;2023-03-03T16:05:54;10.50;98.20
27559;DHT22;15002;52.028;5.670;2023-03-03T16:08:26;10.50;98.80
27559;DHT22;15002;52.028;5.670;2023-03-03T16:11:20;10.60;98.60
27559;DHT22;15002;52.028;5.670;2023-03-03T16:16:53;10.70;98.20
27559;DHT22;15002;52.028;5.670;2023-03-03T16:25:23;10.20;99.00
27559;DHT22;15002;52.028;5.670;2023-03-03T16:36:18;9.90;99.50
27559;DHT22;15002;52.028;5.670;2023-03-03T16:39:05;9.90;99.50
27559;DHT22;15002;52.028;5.670;2023-03-03T16:47:36;9.80;99.50
27559;DHT22;15002;52.028;5.670;2023-03-03T16:52:48;9.80;99.10
27559;DHT22;15002;52.028;5.670;2023-03-03T17:01:05;9.80;98.90
27559;DHT22;15002;52.028;5.670;2023-03-03T17:20:55;9.60;98.40
27559;DHT22;15002;52.028;5.670;2023-03-03T17:23:41;9.50;98.30
27559;DHT22;15002;52.028;5.670;2023-03-03T17:31:51;9.40;98.70
27559;DHT22;15002;52.028;5.670;2023-03-03T17:35:06;9.30;98.80
27559;DHT22;15002;52.028;5.670;2023-03-03T17:40:46;9.20;99.00
27559;DHT22;15002;52.028;5.670;2023-03-03T17:43:22;9.30;99.10
27559;DHT22;15002;52.028;5.670;2023-03-03T17:45:50;9.00;99.20
27559;DHT22;15002;52.028;5.670;2023-03-03T17:56:20;9.40;99.20
27559;DHT22;15002;52.028;5.670;2023-03-03T18:01:54;9.20;99.60
27559;DHT22;15002;52.028;5.670;2023-03-03T18:07:19;9.50;99.50
27559;DHT22;15002;52.028;5.670;2023-03-03T18:23:51;9.40;99.90
27559;DHT22;15002;52.028;5.670;2023-03-03T18:26:40;9.30;99.90
27559;DHT22;15002;52.028;5.670;2023-03-03T18:29:16;9.40;99.90
27559;DHT22;15002;52.028;5.670;2023-03-03T18:32:01;9.20;99.90
27559;DHT22;15002;52.028;5.670;2023-03-03T18:34:40;9.30;99.90
27559;DHT22;15002;52.028;5.670;2023-03-03T18:40:20;9.40;99.90
27559;DHT22;15002;52.028;5.670;2023-03-03T18:42:51;9.30;99.90
27559;DHT22;15002;52.028;5.670;2023-03-03T18:48:04;9.40;99.90
27559;DHT22;15002;52.028;5.670;2023-03-03T18:50:33;9.40;99.90
27559;DHT22;15002;52.028;5.670;2023-03-03T18:53:26;9.40;99.90
27559;DHT22;15002;52.028;5.670;2023-03-03T18:55:58;9.50;99.90
27559;DHT22;15002;52.028;5.670;2023-03-03T19:04:00;9.40;99.90
27559;DHT22;15002;52.028;5.670;2023-03-03T19:09:04;9.20;99.90
27559;DHT22;15002;52.028;5.670;2023-03-03T19:11:40;9.20;99.90
27559;DHT22;15002;52.028;5.670;2023-03-03T19:14:30;9.30;99.90
27559;DHT22;15002;52.028;5.670;2023-03-03T19:16:58;9.40;99.90
27559;DHT22;15002;52.028;5.670;2023-03-03T19:19:28;9.10;99.90
27559;DHT22;15002;52.028;5.670;2023-03-03T19:25:23;9.30;99.90
27559;DHT22;15002;52.028;5.670;2023-03-03T19:35:52;9.00;99.90
27559;DHT22;15002;52.028;5.670;2023-03-03T19:41:01;9.10;99.90
27559;DHT22;15002;52.028;5.670;2023-03-03T19:43:56;9.20;99.90
27559;DHT22;15002;52.028;5.670;2023-03-03T19:49:26;9.00;99.90
27559;DHT22;15002;52.028;5.670;2023-03-03T19:51:58;9.00;99.90
27559;DHT22;15002;52.028;5.670;2023-03-03T19:57:45;9.00;99.90
27559;DHT22;15002;52.028;5.670;2023-03-03T20:00:14;8.90;99.90
27559;DHT22;15002;52.028;5.670;2023-03-03T20:14:01;9.10;99.90
27559;DHT22;15002;52.028;5.670;2023-03-03T20:16:41;9.20;99.90
27559;DHT22;15002;52.028;5.670;2023-03-03T20:19:33;9.30;99.90
27559;DHT22;15002;52.028;5.670;2023-03-03T20:27:54;9.20;99.90
27559;DHT22;15002;52.028;5.670;2023-03-03T20:40:44;9.20;99.90
27559;DHT22;15002;52.028;5.670;2023-03-03T20:43:32;9.30;99.90
27559;DHT22;15002;52.028;5.670;2023-03-03T20:46:12;9.30;99.90
27559;DHT22;15002;52.028;5.670;2023-03-03T20:48:48;9.30;99.90
27559;DHT22;15002;52.028;5.670;2023-03-03T20:54:58;9.30;99.90
27559;DHT22;15002;52.028;5.670;2023-03-03T21:05:20;9.20;99.90
27559;DHT22;15002;52.028;5.670;2023-03-03T21:08:03;9.20;99.90
27559;DHT22;15002;52.028;5.670;2023-03-03T21:10:31;9.50;99.90
27559;DHT22;15002;52.028;5.670;2023-03-03T21:13:30;9.40;99.90
27559;DHT22;15002;52.028;5.670;2023-03-03T21:21:24;9.60;99.90
27559;DHT22;15002;52.028;5.670;2023-03-03T21:23:50;9.40;99.90
27559;DHT22;15002;52.028;5.670;2023-03-03T21:27:12;9.30;99.90
27559;DHT22;15002;52.028;5.670;2023-03-03T21:29:30;9.20;99.90
27559;DHT22;15002;52.028;5.670;2023-03-03T21:31:59;9.20;99.90
27559;DHT22;15002;52.028;5.670;2023-03-03T21:36:51;9.20;99.90
27559;DHT22;15002;52.028;5.670;2023-03-03T21:39:38;9.30;99.90
27559;DHT22;15002;52.028;5.670;2023-03-03T21:42:09;9.40;99.90
27559;DHT22;15002;52.028;5.670;2023-03-03T21:47:06;9.20;99.90
27559;DHT22;15002;52.028;5.670;2023-03-03T21:49:33;9.30;99.90
27559;DHT22;15002;52.028;5.670;2023-03-03T21:52:00;9.30;99.90
27559;DHT22;15002;52.028;5.670;2023-03-03T21:54:26;9.20;99.90
27559;DHT22;15002;52.028;5.670;2023-03-03T21:56:52;9.20;99.90
27559;DHT22;15002;52.028;5.670;2023-03-03T21:59:18;9.30;99.90
27559;DHT22;15002;52.028;5.670;2023-03-03T22:01:44;9.30;99.90
27559;DHT22;15002;52.028;5.670;2023-03-03T22:04:10;9.30;99.90
27559;DHT22;15002;52.028;5.670;2023-03-03T22:06:36;9.40;99.90
27559;DHT22;15002;52.028;5.670;2023-03-03T22:09:05;9.30;99.90
27559;DHT22;15002;52.028;5.670;2023-03-03T22:11:32;9.30;99.90
27559;DHT22;15002;52.028;5.670;2023-03-03T22:13:57;9.20;99.90
27559;DHT22;15002;52.028;5.670;2023-03-03T22:16:23;9.30;99.90
27559;DHT22;15002;52.028;5.670;2023-03-03T22:18:49;9.40;99.90
27559;DHT22;15002;52.028;5.670;2023-03-03T22:21:14;9.40;99.90
27559;DHT22;15002;52.028;5.670;2023-03-03T22:23:40;9.20;99.90
27559;DHT22;15002;52.028;5.670;2023-03-03T22:26:06;9.40;99.90
27559;DHT22;15002;52.028;5.670;2023-03-03T22:28:31;9.50;99.90
27559;DHT22;15002;52.028;5.670;2023-03-03T22:30:57;9.30;99.90
27559;DHT22;15002;52.028;5.670;2023-03-03T22:33:23;9.20;99.90
27559;DHT22;15002;52.028;5.670;2023-03-03T22:35:49;9.10;99.90
27559;DHT22;15002;52.028;5.670;2023-03-03T22:38:15;9.10;99.90
27559;DHT22;15002;52.028;5.670;2023-03-03T22:40:41;9.20;99.90
27559;DHT22;15002;52.028;5.670;2023-03-03T22:43:08;9.20;99.90
27559;DHT22;15002;52.028;5.670;2023-03-03T22:45:35;9.20;99.90
27559;DHT22;15002;52.028;5.670;2023-03-03T22:48:02;9.20;99.90